createdAt,value
2018-07-17T00:02:24.719Z,100170.31
2018-07-17T00:04:53.096Z,100165.45
2018-07-17T00:07:21.491Z,100162.64
2018-07-17T00:09:50.326Z,100161.13
2018-07-17T00:12:18.701Z,100156.89
2018-07-17T00:14:47.104Z,100158.72
2018-07-17T00:17:16.475Z,100165.16
2018-07-17T00:19:44.945Z,100167.89
2018-07-17T00:22:13.348Z,100162.20
2018-07-17T00:24:41.769Z,100165.03
2018-07-17T00:27:10.227Z,100162.16
2018-07-17T00:29:38.577Z,100155.39
2018-07-17T00:32:06.982Z,100157.68
2018-07-17T00:34:35.444Z,100153.17
2018-07-17T00:37:03.865Z,100156.30
2018-07-17T00:39:32.311Z,100157.38
2018-07-17T00:42:00.735Z,100153.66
2018-07-17T00:44:29.255Z,100156.68
2018-07-17T00:46:57.689Z,100150.45
2018-07-17T00:49:26.125Z,100158.16
2018-07-17T00:51:54.508Z,100157.23
2018-07-17T00:54:23.030Z,100157.40
2018-07-17T00:56:51.390Z,100157.17
2018-07-17T00:59:19.769Z,100157.41
2018-07-17T01:01:53.409Z,100154.89
2018-07-17T01:04:27.152Z,100163.19
2018-07-17T01:07:00.869Z,100158.70
2018-07-17T01:09:34.560Z,100158.31
2018-07-17T01:12:08.282Z,100156.02
2018-07-17T01:15:11.904Z,100153.23
2018-07-17T01:17:40.370Z,100152.47
2018-07-17T01:20:08.748Z,100151.38
2018-07-17T01:22:37.121Z,100148.66
2018-07-17T01:25:05.713Z,100150.18
2018-07-17T01:27:34.268Z,100152.00
2018-07-17T01:30:02.749Z,100151.30
2018-07-17T01:32:31.171Z,100147.66
2018-07-17T01:34:59.681Z,100148.25
2018-07-17T01:37:28.276Z,100150.83
2018-07-17T01:39:56.745Z,100157.06
2018-07-17T01:42:28.651Z,100155.46
2018-07-17T01:44:57.814Z,100152.34
2018-07-17T01:47:26.221Z,100154.52
2018-07-17T01:49:54.832Z,100150.64
2018-07-17T01:52:23.250Z,100147.05
2018-07-17T01:54:51.644Z,100151.45
2018-07-17T01:57:20.088Z,100153.92
2018-07-17T01:59:48.447Z,100151.80
2018-07-17T02:02:16.822Z,100151.63
2018-07-17T02:04:45.356Z,100145.63
2018-07-17T02:07:13.709Z,100147.66
2018-07-17T02:09:42.110Z,100147.51
2018-07-17T02:12:10.502Z,100142.56
2018-07-17T02:14:39.089Z,100143.70
2018-07-17T02:17:07.649Z,100143.39
2018-07-17T02:19:36.064Z,100139.86
2018-07-17T02:22:04.468Z,100142.44
2018-07-17T02:24:32.879Z,100143.23
2018-07-17T02:27:01.332Z,100139.64
2018-07-17T02:29:29.778Z,100140.56
2018-07-17T02:31:58.162Z,100147.84
2018-07-17T02:34:26.588Z,100135.40
2018-07-17T02:36:55.059Z,100135.98
2018-07-17T02:39:23.411Z,100141.66
2018-07-17T02:41:52.493Z,100132.69
2018-07-17T02:44:21.148Z,100137.23
2018-07-17T02:46:49.601Z,100139.81
2018-07-17T02:49:18.051Z,100141.77
2018-07-17T02:51:46.436Z,100140.85
2018-07-17T02:54:14.845Z,100142.97
2018-07-17T02:56:43.272Z,100141.89
2018-07-17T02:59:11.692Z,100144.47
2018-07-17T03:01:40.814Z,100144.22
2018-07-17T03:04:09.241Z,100144.83
2018-07-17T03:06:37.654Z,100145.87
2018-07-17T03:09:07.003Z,100146.81
2018-07-17T03:11:35.427Z,100153.27
2018-07-17T03:14:04.002Z,100149.17
2018-07-17T03:16:32.392Z,100149.54
2018-07-17T03:19:00.824Z,100150.58
2018-07-17T03:21:29.174Z,100150.27
2018-07-17T03:23:57.587Z,100154.34
2018-07-17T03:26:25.932Z,100151.41
2018-07-17T03:28:54.545Z,100154.82
2018-07-17T03:31:22.943Z,100151.47
2018-07-17T03:33:51.346Z,100151.98
2018-07-17T03:36:19.789Z,100156.69
2018-07-17T03:38:48.404Z,100155.48
2018-07-17T03:41:16.815Z,100162.23
2018-07-17T03:43:45.272Z,100162.18
2018-07-17T03:46:13.688Z,100166.88
2018-07-17T03:48:42.293Z,100159.86
2018-07-17T03:51:10.658Z,100166.24
2018-07-17T03:53:50.251Z,100168.63
2018-07-17T04:01:59.182Z,100164.36
2018-07-17T04:04:27.666Z,100169.31
2018-07-17T04:06:56.022Z,100162.81
2018-07-17T04:09:24.447Z,100165.80
2018-07-17T04:11:52.839Z,100156.36
2018-07-17T04:14:21.500Z,100157.70
2018-07-17T04:16:53.150Z,100158.89
2018-07-17T04:19:21.665Z,100163.78
2018-07-17T04:21:51.400Z,100168.23
2018-07-17T04:24:20.649Z,100168.12
2018-07-17T04:26:49.251Z,100168.23
2018-07-17T04:29:17.937Z,100173.63
2018-07-17T04:31:46.428Z,100169.30
2018-07-17T04:34:14.820Z,100177.67
2018-07-17T04:36:43.238Z,100179.08
2018-07-17T04:39:13.081Z,100178.81
2018-07-17T04:41:41.674Z,100185.52
2018-07-17T04:44:10.779Z,100187.01
2018-07-17T04:46:39.123Z,100187.73
2018-07-17T04:49:07.652Z,100187.52
2018-07-17T04:51:36.080Z,100188.45
2018-07-17T04:54:04.512Z,100186.52
2018-07-17T04:56:32.962Z,100187.81
2018-07-17T04:59:01.344Z,100185.85
2018-07-17T05:01:30.006Z,100186.56
2018-07-17T05:03:58.568Z,100182.84
2018-07-17T05:06:26.922Z,100178.70
2018-07-17T05:08:55.351Z,100182.36
2018-07-17T05:11:23.721Z,100184.23
2018-07-17T05:13:52.139Z,100181.34
2018-07-17T05:16:20.940Z,100180.17
2018-07-17T05:18:49.375Z,100187.12
2018-07-17T05:21:18.229Z,100184.81
2018-07-17T05:23:46.709Z,100183.97
2018-07-17T05:26:15.236Z,100191.30
2018-07-17T05:28:43.617Z,100188.80
2018-07-17T05:31:12.036Z,100189.20
2018-07-17T05:33:40.444Z,100190.51
2018-07-17T05:36:09.012Z,100196.05
2018-07-17T05:38:37.431Z,100195.22
2018-07-17T05:41:05.971Z,100201.99
2018-07-17T05:43:34.381Z,100207.92
2018-07-17T05:46:02.781Z,100202.97
2018-07-17T05:48:31.180Z,100196.83
2018-07-17T05:50:59.638Z,100197.05
2018-07-17T05:53:28.068Z,100201.70
2018-07-17T05:55:56.737Z,100206.23
2018-07-17T05:58:25.222Z,100204.81
2018-07-17T06:00:53.661Z,100209.61
2018-07-17T06:03:22.133Z,100212.08
2018-07-17T06:05:50.502Z,100210.28
2018-07-17T06:08:18.993Z,100215.94
2018-07-17T06:10:47.447Z,100212.05
2018-07-17T06:13:15.855Z,100209.34
2018-07-17T06:15:44.369Z,100217.95
2018-07-17T06:18:12.833Z,100217.23
2018-07-17T06:20:41.400Z,100215.11
2018-07-17T06:23:09.771Z,100219.96
2018-07-17T06:34:14.677Z,100221.06
2018-07-17T06:36:43.099Z,100223.17
2018-07-17T06:39:11.507Z,100228.17
2018-07-17T06:41:39.917Z,100228.62
2018-07-17T06:44:08.330Z,100220.93
2018-07-17T06:46:51.425Z,100225.45
2018-07-17T06:49:19.828Z,100229.25
2018-07-17T06:57:32.255Z,100222.42
2018-07-17T07:00:00.631Z,100222.21
2018-07-17T07:02:29.078Z,100229.70
2018-07-17T07:04:57.455Z,100222.33
2018-07-17T07:07:25.806Z,100219.16
2018-07-17T07:09:54.260Z,100220.05
2018-07-17T07:27:28.882Z,100226.20
2018-07-17T07:29:57.327Z,100235.98
2018-07-17T07:32:25.752Z,100230.94
2018-07-17T07:34:54.165Z,100230.83
2018-07-17T07:37:22.700Z,100235.16
2018-07-17T07:39:51.054Z,100226.08
2018-07-17T07:42:19.472Z,100227.54
2018-07-17T07:44:47.933Z,100226.87
2018-07-17T07:47:16.435Z,100227.84
2018-07-17T07:49:44.936Z,100223.63
2018-07-17T07:52:13.353Z,100229.54
2018-07-17T07:54:41.742Z,100225.50
2018-07-17T07:57:10.176Z,100225.00
2018-07-17T07:59:38.635Z,100231.36
2018-07-17T08:02:07.102Z,100225.37
2018-07-17T08:04:35.531Z,100230.59
2018-07-17T08:07:03.950Z,100231.81
2018-07-17T08:09:32.428Z,100226.13
2018-07-17T08:12:00.879Z,100226.80
2018-07-17T08:14:29.632Z,100225.73
2018-07-17T08:16:58.087Z,100227.95
2018-07-17T08:19:26.605Z,100222.35
2018-07-17T08:21:55.077Z,100232.00
2018-07-17T08:24:23.511Z,100226.50
2018-07-17T08:26:51.893Z,100224.59
2018-07-17T08:29:20.363Z,100218.17
2018-07-17T08:31:48.825Z,100216.31
2018-07-17T08:34:17.305Z,100208.38
2018-07-17T08:36:46.068Z,100216.76
2018-07-17T08:39:14.704Z,100212.10
2018-07-17T08:41:43.202Z,100220.79
2018-07-17T08:44:11.826Z,100216.55
2018-07-17T08:46:40.259Z,100217.05
2018-07-17T08:49:08.807Z,100212.52
2018-07-17T08:51:37.173Z,100208.69
2018-07-17T08:54:05.875Z,100212.00
2018-07-17T08:56:34.286Z,100214.05
2018-07-17T08:59:02.699Z,100213.33
2018-07-17T09:01:31.525Z,100204.16
2018-07-17T09:03:59.928Z,100210.34
2018-07-17T09:06:28.385Z,100211.83
2018-07-17T09:08:56.757Z,100207.92
2018-07-17T09:11:25.159Z,100212.16
2018-07-17T09:13:53.613Z,100210.98
2018-07-17T09:16:22.836Z,100212.42
2018-07-17T09:18:51.645Z,100212.97
2018-07-17T09:21:20.126Z,100209.11
2018-07-17T09:23:48.561Z,100211.56
2018-07-17T09:26:17.171Z,100210.92
2018-07-17T09:28:46.012Z,100215.64
2018-07-17T09:31:14.443Z,100213.08
2018-07-17T09:33:42.967Z,100214.15
2018-07-17T09:36:11.300Z,100207.01
2018-07-17T09:38:39.695Z,100212.12
2018-07-17T09:41:08.128Z,100214.13
2018-07-17T09:43:36.496Z,100208.92
2018-07-17T09:46:04.894Z,100202.69
2018-07-17T09:48:33.428Z,100210.34
2018-07-17T09:51:02.056Z,100204.00
2018-07-17T09:53:30.455Z,100205.78
2018-07-17T09:55:58.865Z,100203.80
2018-07-17T09:58:27.601Z,100206.09
2018-07-17T10:01:01.191Z,100212.08
2018-07-17T10:03:29.573Z,100208.72
2018-07-17T10:05:57.973Z,100205.03
2018-07-17T10:08:26.455Z,100212.53
2018-07-17T10:10:55.059Z,100214.50
2018-07-17T10:13:23.708Z,100212.02
2018-07-17T10:15:52.132Z,100218.27
2018-07-17T10:18:20.623Z,100211.29
2018-07-17T10:20:49.089Z,100209.75
2018-07-17T10:23:18.346Z,100210.88
2018-07-17T10:25:47.298Z,100213.05
2018-07-17T10:28:16.210Z,100213.95
2018-07-17T10:30:44.845Z,100219.63
2018-07-17T10:33:20.507Z,100214.00
2018-07-17T10:35:49.697Z,100206.87
2018-07-17T10:38:18.085Z,100211.84
2018-07-17T10:40:46.735Z,100217.16
2018-07-17T10:43:18.802Z,100212.19
2018-07-17T10:45:47.321Z,100211.61
2018-07-17T10:48:16.361Z,100205.88
2018-07-17T10:50:44.866Z,100204.36
2018-07-17T10:53:13.289Z,100207.13
2018-07-17T10:55:41.747Z,100207.73
2018-07-17T10:58:10.223Z,100212.38
2018-07-17T11:00:38.805Z,100207.08
2018-07-17T11:03:07.293Z,100207.30
2018-07-17T11:05:35.753Z,100198.73
2018-07-17T11:08:04.179Z,100199.92
2018-07-17T11:10:32.543Z,100204.91
2018-07-17T11:13:00.968Z,100204.97
2018-07-17T11:15:29.408Z,100199.10
2018-07-17T11:17:58.093Z,100193.03
2018-07-17T11:20:26.516Z,100200.45
2018-07-17T11:22:54.950Z,100202.45
2018-07-17T11:25:23.399Z,100188.98
2018-07-17T11:27:51.798Z,100188.92
2018-07-17T11:30:20.184Z,100184.28
2018-07-17T11:32:48.611Z,100187.08
2018-07-17T11:35:17.020Z,100181.23
2018-07-17T11:37:45.446Z,100179.48
2018-07-17T11:40:14.011Z,100176.42
2018-07-17T11:42:42.396Z,100177.03
2018-07-17T11:45:10.816Z,100172.22
2018-07-17T11:47:39.335Z,100178.05
2018-07-17T11:50:07.989Z,100174.77
2018-07-17T11:52:36.460Z,100175.13
2018-07-17T11:55:05.073Z,100173.44
2018-07-17T11:57:33.506Z,100176.61
2018-07-17T12:00:01.938Z,100176.36
2018-07-17T12:02:36.724Z,100172.94
2018-07-17T12:05:05.208Z,100172.79
2018-07-17T12:07:33.613Z,100169.47
2018-07-17T12:10:02.037Z,100172.77
2018-07-17T12:12:30.453Z,100171.06
2018-07-17T12:14:58.853Z,100162.61
2018-07-17T12:17:27.248Z,100161.12
2018-07-17T12:19:55.819Z,100163.66
2018-07-17T12:22:24.146Z,100167.03
2018-07-17T12:24:52.519Z,100161.22
2018-07-17T12:27:20.942Z,100164.31
2018-07-17T12:29:49.360Z,100155.45
2018-07-17T12:32:17.739Z,100165.78
2018-07-17T12:34:46.184Z,100162.16
2018-07-17T12:37:14.544Z,100165.45
2018-07-17T12:39:43.010Z,100157.94
2018-07-17T12:42:11.433Z,100165.39
2018-07-17T12:44:39.895Z,100155.60
2018-07-17T12:47:08.353Z,100162.69
2018-07-17T12:49:36.757Z,100160.06
2018-07-17T12:52:05.228Z,100156.50
2018-07-17T12:54:34.417Z,100153.86
2018-07-17T12:57:02.841Z,100150.09
2018-07-17T12:59:31.715Z,100155.58
2018-07-17T13:02:00.403Z,100146.53
2018-07-17T13:04:28.953Z,100144.38
2018-07-17T13:06:57.434Z,100159.22
2018-07-17T13:09:25.928Z,100154.30
2018-07-17T13:11:54.337Z,100147.65
2018-07-17T13:14:22.921Z,100147.69
2018-07-17T13:16:51.400Z,100145.37
2018-07-17T13:19:19.813Z,100141.72
2018-07-17T13:21:48.228Z,100142.63
2018-07-17T13:24:16.714Z,100139.73
2018-07-17T13:26:45.105Z,100135.30
2018-07-17T13:29:13.519Z,100137.59
2018-07-17T13:31:42.071Z,100134.50
2018-07-17T13:34:10.618Z,100139.75
2018-07-17T13:36:39.069Z,100143.56
2018-07-17T13:39:09.824Z,100141.25
2018-07-17T13:41:38.343Z,100138.94
2018-07-17T13:44:06.896Z,100136.78
2018-07-17T13:46:35.853Z,100138.46
2018-07-17T13:49:04.356Z,100145.52
2018-07-17T13:51:32.790Z,100145.33
2018-07-17T13:54:01.332Z,100143.20
2018-07-17T13:56:29.760Z,100141.37
2018-07-17T13:58:58.146Z,100138.75
2018-07-17T14:01:26.575Z,100138.25
2018-07-17T14:03:55.026Z,100136.26
2018-07-17T14:06:23.738Z,100135.28
2018-07-17T14:08:52.165Z,100135.44
2018-07-17T14:11:20.809Z,100136.55
2018-07-17T14:13:49.189Z,100129.81
2018-07-17T14:16:17.644Z,100124.53
2018-07-17T14:18:46.166Z,100130.80
2018-07-17T14:21:14.587Z,100123.20
2018-07-17T14:23:43.131Z,100129.73
2018-07-17T14:26:11.676Z,100127.44
2018-07-17T14:28:40.196Z,100133.50
2018-07-17T14:31:08.584Z,100129.25
2018-07-17T14:33:37.910Z,100131.39
2018-07-17T14:36:07.087Z,100130.88
2018-07-17T14:38:35.934Z,100128.73
2018-07-17T14:41:04.439Z,100130.78
2018-07-17T14:43:32.947Z,100124.77
2018-07-17T14:46:01.652Z,100119.16
2018-07-17T14:48:30.184Z,100120.48
2018-07-17T14:50:58.820Z,100113.28
2018-07-17T14:53:27.275Z,100114.75
2018-07-17T14:55:55.764Z,100116.88
2018-07-17T14:58:24.239Z,100114.95
2018-07-17T15:00:52.646Z,100118.91
2018-07-17T15:03:21.165Z,100116.86
2018-07-17T15:05:50.966Z,100112.90
2018-07-17T15:08:19.390Z,100113.22
2018-07-17T15:10:47.836Z,100112.22
2018-07-17T15:13:17.258Z,100106.61
2018-07-17T15:15:46.306Z,100102.01
2018-07-17T15:18:14.686Z,100101.02
2018-07-17T15:20:43.263Z,100103.64
2018-07-17T15:23:12.127Z,100103.14
2018-07-17T15:25:40.612Z,100102.95
2018-07-17T15:28:09.912Z,100107.58
2018-07-17T15:30:38.766Z,100103.59
2018-07-17T15:33:07.637Z,100100.95
2018-07-17T15:35:37.096Z,100105.27
2018-07-17T15:38:05.665Z,100102.98
2018-07-17T15:40:34.169Z,100103.48
2018-07-17T15:43:02.672Z,100108.58
2018-07-17T15:45:31.301Z,100106.27
2018-07-17T15:48:01.130Z,100112.55
2018-07-17T15:50:29.617Z,100109.89
2018-07-17T15:52:58.215Z,100112.83
2018-07-17T15:55:26.949Z,100111.52
2018-07-17T15:57:55.443Z,100109.09
2018-07-17T16:00:23.995Z,100113.53
2018-07-17T16:02:52.446Z,100112.19
2018-07-17T16:05:21.166Z,100112.68
2018-07-17T16:07:49.614Z,100115.16
2018-07-17T16:10:18.082Z,100128.22
2018-07-17T16:12:46.596Z,100118.41
2018-07-17T16:15:15.098Z,100118.27
2018-07-17T16:17:44.346Z,100114.47
2018-07-17T16:20:12.830Z,100111.36
2018-07-17T16:22:41.289Z,100109.54
2018-07-17T16:25:09.777Z,100109.23
2018-07-17T16:27:38.186Z,100110.54
2018-07-17T16:30:07.381Z,100108.52
2018-07-17T16:32:35.988Z,100111.13
2018-07-17T16:35:05.607Z,100105.36
2018-07-17T16:37:34.077Z,100106.23
2018-07-17T16:40:03.163Z,100106.86
2018-07-17T16:42:31.667Z,100103.52
2018-07-17T16:45:00.432Z,100098.08
2018-07-17T16:47:28.918Z,100102.52
2018-07-17T16:49:57.306Z,100099.88
2018-07-17T16:52:25.759Z,100092.63
2018-07-17T16:54:54.129Z,100104.77
2018-07-17T16:57:22.651Z,100100.80
2018-07-17T16:59:51.066Z,100111.17
2018-07-17T17:02:19.521Z,100101.27
2018-07-17T17:04:48.004Z,100103.91
2018-07-17T17:07:16.499Z,100105.55
2018-07-17T17:09:44.956Z,100101.87
2018-07-17T17:12:13.362Z,100108.31
2018-07-17T17:14:41.761Z,100103.71
2018-07-17T17:17:10.498Z,100098.73
2018-07-17T17:19:39.020Z,100102.05
2018-07-17T17:22:07.467Z,100101.70
2018-07-17T17:24:35.944Z,100096.45
2018-07-17T17:27:04.234Z,100103.84
2018-07-17T17:29:32.759Z,100102.67
2018-07-17T17:32:01.156Z,100102.32
2018-07-17T17:34:29.800Z,100098.34
2018-07-17T17:36:58.251Z,100100.30
2018-07-17T17:39:26.807Z,100099.98
2018-07-17T17:42:26.027Z,100105.06
2018-07-17T17:44:54.697Z,100103.04
2018-07-17T17:47:23.113Z,100098.70
2018-07-17T17:49:51.570Z,100105.41
2018-07-17T17:52:20.002Z,100105.70
2018-07-17T17:54:48.446Z,100107.45
2018-07-17T17:57:17.049Z,100115.53
2018-07-17T17:59:45.425Z,100111.52
2018-07-17T18:02:13.956Z,100109.13
2018-07-17T18:04:42.422Z,100108.45
2018-07-17T18:07:11.165Z,100111.14
2018-07-17T18:09:39.663Z,100111.78
2018-07-17T18:12:08.161Z,100111.61
2018-07-17T18:14:36.571Z,100110.34
2018-07-17T18:17:04.978Z,100111.45
2018-07-17T18:19:33.844Z,100117.35
2018-07-17T18:22:02.340Z,100115.95
2018-07-17T18:24:30.838Z,100114.27
2018-07-17T18:26:59.420Z,100123.44
2018-07-17T18:29:27.817Z,100121.70
2018-07-17T18:31:56.273Z,100125.20
2018-07-17T18:34:24.724Z,100129.45
2018-07-17T18:36:53.251Z,100137.93
2018-07-17T18:39:21.720Z,100131.44
2018-07-17T18:41:50.205Z,100132.05
2018-07-17T18:44:18.746Z,100136.38
2018-07-17T18:46:47.195Z,100138.67
2018-07-17T18:49:15.645Z,100148.13
2018-07-17T18:51:44.023Z,100151.66
2018-07-17T18:54:12.508Z,100151.60
2018-07-17T18:56:40.925Z,100149.54
2018-07-17T18:59:09.318Z,100147.84
2018-07-17T19:01:37.727Z,100153.61
2018-07-17T19:04:06.539Z,100150.84
2018-07-17T19:06:35.029Z,100153.84
2018-07-17T19:09:04.111Z,100153.71
2018-07-17T19:11:32.569Z,100158.80
2018-07-17T19:14:01.021Z,100153.84
2018-07-17T19:16:29.443Z,100156.77
2018-07-17T19:18:57.907Z,100163.32
2018-07-17T19:21:26.428Z,100164.09
2018-07-17T19:23:54.817Z,100170.09
2018-07-17T19:26:25.071Z,100167.97
2018-07-17T19:28:53.595Z,100171.15
2018-07-17T19:31:22.067Z,100168.94
2018-07-17T19:33:50.538Z,100174.59
2018-07-17T19:36:19.189Z,100169.88
2018-07-17T19:38:47.657Z,100177.88
2018-07-17T19:41:16.075Z,100176.48
2018-07-17T19:43:44.468Z,100172.56
2018-07-17T19:46:12.920Z,100177.85
2018-07-17T19:48:41.341Z,100177.98
2018-07-17T19:51:09.781Z,100174.93
2018-07-17T19:53:38.821Z,100177.86
2018-07-17T19:56:07.315Z,100178.59
2018-07-17T19:58:35.780Z,100180.61
2018-07-17T20:01:04.388Z,100186.47
2018-07-17T20:03:32.909Z,100179.48
2018-07-17T20:06:02.437Z,100171.64
2018-07-17T20:08:30.979Z,100179.05
2018-07-17T20:10:59.640Z,100175.52
2018-07-17T20:13:28.226Z,100178.38
2018-07-17T20:15:57.040Z,100178.19
2018-07-17T20:18:25.505Z,100178.19
2018-07-17T20:20:54.081Z,100188.72
2018-07-17T20:23:22.513Z,100188.72
2018-07-17T20:25:50.972Z,100199.92
2018-07-17T20:28:19.396Z,100199.08
2018-07-17T20:30:47.896Z,100197.89
2018-07-17T20:33:16.316Z,100206.09
2018-07-17T20:35:44.769Z,100205.80
2018-07-17T20:38:13.227Z,100203.43
2018-07-17T20:40:41.760Z,100208.06
2018-07-17T20:43:10.167Z,100216.16
2018-07-17T20:45:38.633Z,100217.26
2018-07-17T20:48:07.250Z,100221.09
2018-07-17T20:50:35.609Z,100228.03
2018-07-17T20:53:04.014Z,100227.46
2018-07-17T20:55:32.507Z,100224.02
2018-07-17T20:58:00.980Z,100222.16
2018-07-17T21:00:59.907Z,100228.37
2018-07-17T21:03:28.357Z,100241.84
2018-07-17T21:05:56.725Z,100240.05
2018-07-17T21:08:25.201Z,100239.47
2018-07-17T21:10:53.958Z,100242.58
2018-07-17T21:13:22.443Z,100248.66
2018-07-17T21:15:50.907Z,100257.33
2018-07-17T21:18:19.525Z,100257.33
2018-07-17T21:20:47.927Z,100260.30
2018-07-17T21:23:16.400Z,100262.30
2018-07-17T21:25:44.904Z,100260.06
2018-07-17T21:28:13.314Z,100268.23
2018-07-17T21:30:42.620Z,100276.22
2018-07-17T21:33:11.119Z,100275.00
2018-07-17T21:35:39.539Z,100278.70
2018-07-17T21:38:07.908Z,100279.50
2018-07-17T21:40:36.312Z,100279.83
2018-07-17T21:43:05.177Z,100280.50
2018-07-17T21:45:33.633Z,100285.00
2018-07-17T21:48:13.148Z,100289.38
2018-07-17T21:50:41.573Z,100289.62
2018-07-17T21:53:10.073Z,100292.30
2018-07-17T21:55:38.615Z,100301.92
2018-07-17T21:58:07.098Z,100298.66
2018-07-17T22:00:35.602Z,100291.54
2018-07-17T22:03:03.996Z,100297.66
2018-07-17T22:05:32.487Z,100307.27
2018-07-17T22:08:00.987Z,100300.94
2018-07-17T22:10:29.421Z,100303.74
2018-07-17T22:12:57.909Z,100296.09
2018-07-17T22:15:26.455Z,100309.88
2018-07-17T22:17:55.047Z,100312.89
2018-07-17T22:20:23.471Z,100318.39
2018-07-17T22:22:51.972Z,100313.12
2018-07-17T22:25:21.016Z,100313.38
2018-07-17T22:27:49.493Z,100315.20
2018-07-17T22:30:18.738Z,100313.41
2018-07-17T22:32:47.245Z,100316.69
2018-07-17T22:35:15.760Z,100323.59
2018-07-17T22:37:44.241Z,100325.22
2018-07-17T22:40:12.659Z,100338.41
2018-07-17T22:42:41.103Z,100345.22
2018-07-17T22:45:09.489Z,100347.29
2018-07-17T22:47:38.925Z,100355.13
2018-07-17T22:50:07.610Z,100358.11
2018-07-17T22:52:36.429Z,100358.63
2018-07-17T22:55:04.858Z,100366.92
2018-07-17T22:57:33.298Z,100360.47
2018-07-17T23:00:01.709Z,100363.81
2018-07-17T23:02:30.147Z,100371.48
2018-07-17T23:04:58.525Z,100375.48
2018-07-17T23:07:26.916Z,100372.46
2018-07-17T23:09:55.341Z,100370.77
2018-07-17T23:12:23.850Z,100373.80
2018-07-17T23:14:52.245Z,100370.51
2018-07-17T23:17:20.676Z,100375.25
2018-07-17T23:19:49.090Z,100375.72
2018-07-17T23:22:22.522Z,100372.56
2018-07-17T23:24:51.058Z,100376.31
2018-07-17T23:27:19.436Z,100382.67
2018-07-17T23:29:47.856Z,100382.85
2018-07-17T23:32:16.277Z,100382.50
2018-07-17T23:34:44.741Z,100374.25
2018-07-17T23:37:13.148Z,100381.42
2018-07-17T23:39:41.577Z,100379.30
2018-07-17T23:42:10.012Z,100381.24
2018-07-17T23:44:38.431Z,100387.47
2018-07-17T23:47:06.838Z,100381.98
2018-07-17T23:49:39.085Z,100384.98
2018-07-17T23:52:08.194Z,100388.08
2018-07-17T23:54:36.603Z,100389.03
2018-07-17T23:57:05.121Z,100392.45
2018-07-17T23:59:33.560Z,100399.02
